sensor_id;sensor_type;location;lat;lon;timestamp;pressure;altitude;pressure_sealevel;temperature;humidity
73824;BME280;62154;54.914;73.444;2023-02-21T00:02:48;99777.53;;;-1.11;100.00
73824;BME280;62154;54.914;73.444;2023-02-21T00:05:34;99784.66;;;-1.10;100.00
73824;BME280;62154;54.914;73.444;2023-02-21T00:08:20;99770.69;;;-1.16;100.00
73824;BME280;62154;54.914;73.444;2023-02-21T00:11:06;99778.72;;;-1.14;100.00
73824;BME280;62154;54.914;73.444;2023-02-21T00:13:52;99788.19;;;-1.18;100.00
73824;BME280;62154;54.914;73.444;2023-02-21T00:16:38;99790.44;;;-1.13;100.00
73824;BME280;62154;54.914;73.444;2023-02-21T00:19:27;99796.88;;;-1.15;100.00
73824;BME280;62154;54.914;73.444;2023-02-21T00:22:13;99788.72;;;-1.15;100.00
73824;BME280;62154;54.914;73.444;2023-02-21T00:24:59;99796.41;;;-1.10;100.00
73824;BME280;62154;54.914;73.444;2023-02-21T00:27:45;99793.19;;;-1.05;100.00
73824;BME280;62154;54.914;73.444;2023-02-21T00:30:31;99774.97;;;-1.13;100.00
73824;BME280;62154;54.914;73.444;2023-02-21T00:33:27;99802.53;;;-1.08;100.00
73824;BME280;62154;54.914;73.444;2023-02-21T00:36:22;99801.84;;;-1.10;100.00
73824;BME280;62154;54.914;73.444;2023-02-21T00:39:08;99808.13;;;-1.09;100.00
73824;BME280;62154;54.914;73.444;2023-02-21T00:41:56;99805.38;;;-1.18;100.00
73824;BME280;62154;54.914;73.444;2023-02-21T00:44:42;99807.59;;;-1.13;100.00
73824;BME280;62154;54.914;73.444;2023-02-21T00:47:34;99799.78;;;-1.16;100.00
73824;BME280;62154;54.914;73.444;2023-02-21T00:50:20;99800.78;;;-1.17;100.00
73824;BME280;62154;54.914;73.444;2023-02-21T00:53:06;99809.31;;;-1.12;100.00
73824;BME280;62154;54.914;73.444;2023-02-21T00:55:51;99805.31;;;-1.26;100.00
73824;BME280;62154;54.914;73.444;2023-02-21T00:58:38;99815.09;;;-1.33;100.00
73824;BME280;62154;54.914;73.444;2023-02-21T01:01:24;99818.13;;;-1.36;100.00
73824;BME280;62154;54.914;73.444;2023-02-21T01:04:11;99817.44;;;-1.38;100.00
73824;BME280;62154;54.914;73.444;2023-02-21T01:06:57;99827.13;;;-1.36;100.00
73824;BME280;62154;54.914;73.444;2023-02-21T01:09:49;99825.97;;;-1.33;100.00
73824;BME280;62154;54.914;73.444;2023-02-21T01:12:49;99767.91;;;-1.68;100.00
73824;BME280;62154;54.914;73.444;2023-02-21T01:15:45;99835.38;;;-1.27;100.00
73824;BME280;62154;54.914;73.444;2023-02-21T01:18:41;99838.94;;;-1.27;100.00
73824;BME280;62154;54.914;73.444;2023-02-21T01:21:27;99835.53;;;-1.29;100.00
73824;BME280;62154;54.914;73.444;2023-02-21T01:24:18;99829.78;;;-1.26;100.00
73824;BME280;62154;54.914;73.444;2023-02-21T01:27:05;99828.31;;;-1.20;100.00
73824;BME280;62154;54.914;73.444;2023-02-21T01:29:54;99838.69;;;-1.16;100.00
73824;BME280;62154;54.914;73.444;2023-02-21T01:32:45;99801.50;;;-1.33;100.00
73824;BME280;62154;54.914;73.444;2023-02-21T01:35:36;99835.19;;;-1.08;100.00
73824;BME280;62154;54.914;73.444;2023-02-21T01:38:33;99835.34;;;-1.09;100.00
73824;BME280;62154;54.914;73.444;2023-02-21T01:41:24;99844.53;;;-1.10;100.00
73824;BME280;62154;54.914;73.444;2023-02-21T01:44:30;99839.41;;;-1.13;100.00
73824;BME280;62154;54.914;73.444;2023-02-21T01:47:18;99843.47;;;-1.18;100.00
73824;BME280;62154;54.914;73.444;2023-02-21T01:50:29;99843.75;;;-1.21;100.00
73824;BME280;62154;54.914;73.444;2023-02-21T01:53:24;99776.13;;;-1.60;100.00
73824;BME280;62154;54.914;73.444;2023-02-21T01:56:15;99807.25;;;-1.36;100.00
73824;BME280;62154;54.914;73.444;2023-02-21T01:59:12;99849.91;;;-1.19;100.00
73824;BME280;62154;54.914;73.444;2023-02-21T02:02:20;99777.13;;;-1.61;100.00
73824;BME280;62154;54.914;73.444;2023-02-21T02:05:22;99848.94;;;-1.09;100.00
73824;BME280;62154;54.914;73.444;2023-02-21T02:08:09;99854.22;;;-1.08;100.00
73824;BME280;62154;54.914;73.444;2023-02-21T02:11:07;99859.03;;;-1.02;100.00
73824;BME280;62154;54.914;73.444;2023-02-21T02:16:44;99867.81;;;-0.90;100.00
73824;BME280;62154;54.914;73.444;2023-02-21T02:19:42;99873.94;;;-0.88;100.00
73824;BME280;62154;54.914;73.444;2023-02-21T02:25:14;99873.66;;;-0.85;100.00
73824;BME280;62154;54.914;73.444;2023-02-21T02:35:37;99878.09;;;-0.84;100.00
73824;BME280;62154;54.914;73.444;2023-02-21T02:44:05;99891.72;;;-0.75;100.00
73824;BME280;62154;54.914;73.444;2023-02-21T02:46:40;99861.13;;;-0.95;100.00
73824;BME280;62154;54.914;73.444;2023-02-21T02:49:17;99891.41;;;-0.72;100.00
73824;BME280;62154;54.914;73.444;2023-02-21T02:51:52;99902.00;;;-0.69;100.00
73824;BME280;62154;54.914;73.444;2023-02-21T02:54:35;99878.09;;;-0.84;100.00
73824;BME280;62154;54.914;73.444;2023-02-21T02:57:06;99897.75;;;-0.63;100.00
73824;BME280;62154;54.914;73.444;2023-02-21T02:59:43;99909.19;;;-0.60;100.00
73824;BME280;62154;54.914;73.444;2023-02-21T03:05:32;99916.34;;;-0.59;100.00
73824;BME280;62154;54.914;73.444;2023-02-21T03:08:16;99902.56;;;-0.57;100.00
73824;BME280;62154;54.914;73.444;2023-02-21T03:11:08;99858.31;;;-0.86;100.00
73824;BME280;62154;54.914;73.444;2023-02-21T03:16:29;99925.81;;;-0.45;100.00
73824;BME280;62154;54.914;73.444;2023-02-21T03:19:33;99908.94;;;-0.48;100.00
73824;BME280;62154;54.914;73.444;2023-02-21T03:22:18;99935.22;;;-0.39;100.00
73824;BME280;62154;54.914;73.444;2023-02-21T03:24:53;99942.72;;;-0.33;100.00
73824;BME280;62154;54.914;73.444;2023-02-21T03:27:22;99916.63;;;-0.44;100.00
73824;BME280;62154;54.914;73.444;2023-02-21T03:29:56;99936.81;;;-0.28;100.00
73824;BME280;62154;54.914;73.444;2023-02-21T03:32:37;99946.22;;;-0.23;100.00
73824;BME280;62154;54.914;73.444;2023-02-21T03:35:07;99937.19;;;-0.23;100.00
73824;BME280;62154;54.914;73.444;2023-02-21T03:37:46;99943.72;;;-0.08;100.00
73824;BME280;62154;54.914;73.444;2023-02-21T03:40:29;99951.25;;;-0.02;100.00
73824;BME280;62154;54.914;73.444;2023-02-21T03:43:01;99942.44;;;0.05;100.00
73824;BME280;62154;54.914;73.444;2023-02-21T03:45:35;99906.75;;;-0.10;100.00
73824;BME280;62154;54.914;73.444;2023-02-21T03:48:18;99955.31;;;0.21;100.00
73824;BME280;62154;54.914;73.444;2023-02-21T03:50:46;99956.03;;;0.31;100.00
73824;BME280;62154;54.914;73.444;2023-02-21T03:53:21;99916.78;;;0.15;100.00
73824;BME280;62154;54.914;73.444;2023-02-21T03:55:49;99905.88;;;0.15;100.00
73824;BME280;62154;54.914;73.444;2023-02-21T03:58:25;99958.66;;;0.49;100.00
73824;BME280;62154;54.914;73.444;2023-02-21T04:01:03;99903.81;;;0.18;100.00
73824;BME280;62154;54.914;73.444;2023-02-21T04:03:42;99970.78;;;0.55;100.00
73824;BME280;62154;54.914;73.444;2023-02-21T04:06:09;99969.75;;;0.56;100.00
73824;BME280;62154;54.914;73.444;2023-02-21T04:08:48;99971.31;;;0.58;100.00
73824;BME280;62154;54.914;73.444;2023-02-21T04:11:18;99978.13;;;0.62;100.00
73824;BME280;62154;54.914;73.444;2023-02-21T04:13:57;99979.16;;;0.61;100.00
73824;BME280;62154;54.914;73.444;2023-02-21T04:16:30;99976.09;;;0.64;100.00
73824;BME280;62154;54.914;73.444;2023-02-21T04:18:58;99984.84;;;0.76;100.00
73824;BME280;62154;54.914;73.444;2023-02-21T04:21:26;99986.91;;;0.83;100.00
73824;BME280;62154;54.914;73.444;2023-02-21T04:23:55;99981.44;;;0.91;100.00
73824;BME280;62154;54.914;73.444;2023-02-21T04:26:28;99980.94;;;0.95;100.00
73824;BME280;62154;54.914;73.444;2023-02-21T04:29:07;99988.66;;;1.00;100.00
73824;BME280;62154;54.914;73.444;2023-02-21T04:31:40;99998.88;;;1.06;100.00
73824;BME280;62154;54.914;73.444;2023-02-21T04:34:18;99995.47;;;1.04;100.00
73824;BME280;62154;54.914;73.444;2023-02-21T04:36:46;99992.22;;;1.09;100.00
73824;BME280;62154;54.914;73.444;2023-02-21T04:39:14;99966.59;;;0.93;100.00
73824;BME280;62154;54.914;73.444;2023-02-21T04:41:42;99995.66;;;1.11;100.00
73824;BME280;62154;54.914;73.444;2023-02-21T04:44:09;100001.47;;;1.16;100.00
73824;BME280;62154;54.914;73.444;2023-02-21T04:46:48;100011.00;;;1.20;100.00
73824;BME280;62154;54.914;73.444;2023-02-21T04:49:21;100016.81;;;1.25;100.00
73824;BME280;62154;54.914;73.444;2023-02-21T04:52:00;100013.59;;;1.30;100.00
73824;BME280;62154;54.914;73.444;2023-02-21T04:54:28;100012.41;;;1.33;100.00
73824;BME280;62154;54.914;73.444;2023-02-21T04:56:56;100024.38;;;1.40;100.00
73824;BME280;62154;54.914;73.444;2023-02-21T04:59:23;100010.69;;;1.32;100.00
73824;BME280;62154;54.914;73.444;2023-02-21T05:01:56;100029.34;;;1.44;100.00
73824;BME280;62154;54.914;73.444;2023-02-21T05:04:30;100041.28;;;1.52;100.00
73824;BME280;62154;54.914;73.444;2023-02-21T05:06:59;100001.28;;;1.34;100.00
73824;BME280;62154;54.914;73.444;2023-02-21T05:09:31;100041.28;;;1.60;100.00
73824;BME280;62154;54.914;73.444;2023-02-21T05:12:10;100039.56;;;1.67;100.00
73824;BME280;62154;54.914;73.444;2023-02-21T05:14:38;100050.88;;;1.72;100.00
73824;BME280;62154;54.914;73.444;2023-02-21T05:17:06;100036.16;;;1.73;100.00
73824;BME280;62154;54.914;73.444;2023-02-21T05:19:39;100041.28;;;1.76;100.00
73824;BME280;62154;54.914;73.444;2023-02-21T05:22:06;100046.22;;;1.81;100.00
73824;BME280;62154;54.914;73.444;2023-02-21T05:24:34;100058.03;;;1.82;100.00
73824;BME280;62154;54.914;73.444;2023-02-21T05:27:08;100057.84;;;1.83;100.00
73824;BME280;62154;54.914;73.444;2023-02-21T05:29:49;100053.59;;;1.89;100.00
73824;BME280;62154;54.914;73.444;2023-02-21T05:32:19;100037.19;;;1.72;100.00
73824;BME280;62154;54.914;73.444;2023-02-21T05:34:49;100049.31;;;1.78;100.00
73824;BME280;62154;54.914;73.444;2023-02-21T05:37:27;100076.31;;;1.89;100.00
73824;BME280;62154;54.914;73.444;2023-02-21T05:39:59;100075.09;;;1.92;100.00
73824;BME280;62154;54.914;73.444;2023-02-21T05:42:37;100082.81;;;1.97;100.00
73824;BME280;62154;54.914;73.444;2023-02-21T05:45:04;100076.81;;;2.01;100.00
73824;BME280;62154;54.914;73.444;2023-02-21T05:47:33;100082.47;;;2.08;100.00
73824;BME280;62154;54.914;73.444;2023-02-21T05:50:06;100083.44;;;2.15;100.00
73824;BME280;62154;54.914;73.444;2023-02-21T05:52:37;100092.34;;;2.17;100.00
73824;BME280;62154;54.914;73.444;2023-02-21T05:55:05;100098.50;;;2.19;100.00
73824;BME280;62154;54.914;73.444;2023-02-21T05:57:37;100075.78;;;2.02;100.00
73824;BME280;62154;54.914;73.444;2023-02-21T06:00:06;100096.13;;;2.08;100.00
73824;BME280;62154;54.914;73.444;2023-02-21T06:02:38;100112.03;;;2.04;100.00
73824;BME280;62154;54.914;73.444;2023-02-21T06:05:06;100112.00;;;1.96;100.00
73824;BME280;62154;54.914;73.444;2023-02-21T06:07:34;100130.81;;;1.91;100.00
73824;BME280;62154;54.914;73.444;2023-02-21T06:10:02;100118.00;;;1.75;100.00
73824;BME280;62154;54.914;73.444;2023-02-21T06:12:35;100101.19;;;1.53;100.00
73824;BME280;62154;54.914;73.444;2023-02-21T06:15:16;100132.84;;;1.64;100.00
73824;BME280;62154;54.914;73.444;2023-02-21T06:17:49;100137.91;;;1.51;100.00
73824;BME280;62154;54.914;73.444;2023-02-21T06:20:19;100146.28;;;1.49;100.00
73824;BME280;62154;54.914;73.444;2023-02-21T06:22:51;100108.47;;;1.20;100.00
73824;BME280;62154;54.914;73.444;2023-02-21T06:25:18;100148.34;;;1.55;100.00
73824;BME280;62154;54.914;73.444;2023-02-21T06:27:46;100137.78;;;1.52;100.00
73824;BME280;62154;54.914;73.444;2023-02-21T06:30:14;100143.06;;;1.54;100.00
73824;BME280;62154;54.914;73.444;2023-02-21T06:32:52;100150.91;;;1.57;100.00
73824;BME280;62154;54.914;73.444;2023-02-21T06:35:31;100154.34;;;1.59;100.00
73824;BME280;62154;54.914;73.444;2023-02-21T06:38:08;100118.63;;;1.36;100.00
73824;BME280;62154;54.914;73.444;2023-02-21T06:40:46;100159.66;;;1.69;100.00
73824;BME280;62154;54.914;73.444;2023-02-21T06:43:13;100155.38;;;1.74;100.00
73824;BME280;62154;54.914;73.444;2023-02-21T06:45:40;100165.66;;;1.81;100.00
73824;BME280;62154;54.914;73.444;2023-02-21T06:48:14;100165.00;;;1.87;100.00
73824;BME280;62154;54.914;73.444;2023-02-21T06:50:43;100170.28;;;1.88;100.00
73824;BME280;62154;54.914;73.444;2023-02-21T06:53:10;100161.91;;;1.98;100.00
73824;BME280;62154;54.914;73.444;2023-02-21T06:55:38;100168.75;;;2.02;100.00
73824;BME280;62154;54.914;73.444;2023-02-21T06:58:15;100176.47;;;2.07;100.00
73824;BME280;62154;54.914;73.444;2023-02-21T07:00:53;100144.31;;;1.92;100.00
73824;BME280;62154;54.914;73.444;2023-02-21T07:03:22;100157.50;;;2.05;100.00
73824;BME280;62154;54.914;73.444;2023-02-21T07:05:55;100171.34;;;2.28;100.00
73824;BME280;62154;54.914;73.444;2023-02-21T07:08:22;100180.06;;;2.32;100.00
73824;BME280;62154;54.914;73.444;2023-02-21T07:10:52;100180.06;;;2.32;100.00
73824;BME280;62154;54.914;73.444;2023-02-21T07:13:30;100180.72;;;2.34;100.00
73824;BME280;62154;54.914;73.444;2023-02-21T07:16:02;100165.38;;;2.17;100.00
73824;BME280;62154;54.914;73.444;2023-02-21T07:18:40;100188.78;;;2.19;100.00
73824;BME280;62154;54.914;73.444;2023-02-21T07:21:09;100190.66;;;2.19;100.00
73824;BME280;62154;54.914;73.444;2023-02-21T07:23:37;100135.06;;;1.77;100.00
73824;BME280;62154;54.914;73.444;2023-02-21T07:26:05;100199.19;;;2.16;100.00
73824;BME280;62154;54.914;73.444;2023-02-21T07:28:36;100183.63;;;2.16;100.00
73824;BME280;62154;54.914;73.444;2023-02-21T07:31:04;100210.50;;;2.21;100.00
73824;BME280;62154;54.914;73.444;2023-02-21T07:33:32;100199.38;;;2.22;100.00
73824;BME280;62154;54.914;73.444;2023-02-21T07:36:01;100170.47;;;2.11;100.00
73824;BME280;62154;54.914;73.444;2023-02-21T07:38:29;100202.97;;;2.31;100.00
73824;BME280;62154;54.914;73.444;2023-02-21T07:41:02;100187.41;;;2.40;100.00
73824;BME280;62154;54.914;73.444;2023-02-21T07:43:40;100187.91;;;2.52;100.00
73824;BME280;62154;54.914;73.444;2023-02-21T07:46:11;100170.28;;;2.38;100.00
73824;BME280;62154;54.914;73.444;2023-02-21T07:48:40;100200.38;;;2.63;100.00
73824;BME280;62154;54.914;73.444;2023-02-21T07:51:08;100201.06;;;2.56;100.00
73824;BME280;62154;54.914;73.444;2023-02-21T07:53:36;100172.00;;;2.39;100.00
73824;BME280;62154;54.914;73.444;2023-02-21T07:56:04;100196.81;;;2.54;100.00
73824;BME280;62154;54.914;73.444;2023-02-21T07:58:31;100203.47;;;2.51;100.00
73824;BME280;62154;54.914;73.444;2023-02-21T08:01:06;100205.84;;;2.54;100.00
73824;BME280;62154;54.914;73.444;2023-02-21T08:03:35;100215.25;;;2.52;100.00
73824;BME280;62154;54.914;73.444;2023-02-21T08:06:14;100214.25;;;2.44;100.00
73824;BME280;62154;54.914;73.444;2023-02-21T08:08:42;100222.63;;;2.43;100.00
73824;BME280;62154;54.914;73.444;2023-02-21T08:11:11;100220.75;;;2.35;100.00
73824;BME280;62154;54.914;73.444;2023-02-21T08:13:39;100195.44;;;2.25;100.00
73824;BME280;62154;54.914;73.444;2023-02-21T08:16:17;100216.31;;;2.42;100.00
73824;BME280;62154;54.914;73.444;2023-02-21T08:18:48;100230.69;;;2.44;100.00
73824;BME280;62154;54.914;73.444;2023-02-21T08:21:24;100215.09;;;2.45;100.00
73824;BME280;62154;54.914;73.444;2023-02-21T08:24:02;100217.84;;;2.45;100.00
73824;BME280;62154;54.914;73.444;2023-02-21T08:26:30;100217.84;;;2.45;100.00
73824;BME280;62154;54.914;73.444;2023-02-21T08:28:58;100216.81;;;2.46;100.00
73824;BME280;62154;54.914;73.444;2023-02-21T08:31:25;100234.94;;;2.64;100.00
73824;BME280;62154;54.914;73.444;2023-02-21T08:33:53;100199.88;;;2.42;100.00
73824;BME280;62154;54.914;73.444;2023-02-21T08:36:20;100158.50;;;2.29;100.00
73824;BME280;62154;54.914;73.444;2023-02-21T08:39:01;100211.84;;;2.66;100.00
73824;BME280;62154;54.914;73.444;2023-02-21T08:41:42;64066.41;;;-147.71;100.00
73824;BME280;62154;54.914;73.444;2023-02-21T08:44:12;64066.41;;;-147.71;100.00
73824;BME280;62154;54.914;73.444;2023-02-21T08:46:47;64066.41;;;-147.71;100.00
73824;BME280;62154;54.914;73.444;2023-02-21T08:49:23;64066.41;;;-147.71;100.00
73824;BME280;62154;54.914;73.444;2023-02-21T08:51:51;64066.41;;;-147.71;100.00
73824;BME280;62154;54.914;73.444;2023-02-21T08:54:23;64066.41;;;-147.71;100.00
73824;BME280;62154;54.914;73.444;2023-02-21T08:57:01;64066.41;;;-147.71;100.00
73824;BME280;62154;54.914;73.444;2023-02-21T08:59:42;64066.41;;;-147.71;100.00
73824;BME280;62154;54.914;73.444;2023-02-21T09:02:19;64066.41;;;-147.71;100.00
73824;BME280;62154;54.914;73.444;2023-02-21T09:04:47;64066.41;;;-147.71;100.00
73824;BME280;62154;54.914;73.444;2023-02-21T09:07:21;64066.41;;;-147.71;100.00
73824;BME280;62154;54.914;73.444;2023-02-21T09:09:54;64066.41;;;-147.71;100.00
73824;BME280;62154;54.914;73.444;2023-02-21T09:12:21;64066.41;;;-147.71;100.00
73824;BME280;62154;54.914;73.444;2023-02-21T09:14:49;64066.41;;;-147.71;100.00
73824;BME280;62154;54.914;73.444;2023-02-21T09:17:20;64066.41;;;-147.71;100.00
73824;BME280;62154;54.914;73.444;2023-02-21T09:19:48;64066.41;;;-147.71;100.00
73824;BME280;62154;54.914;73.444;2023-02-21T09:22:16;64066.41;;;-147.71;100.00
73824;BME280;62154;54.914;73.444;2023-02-21T09:24:44;64066.41;;;-147.71;100.00
73824;BME280;62154;54.914;73.444;2023-02-21T09:27:11;64066.41;;;-147.71;100.00
73824;BME280;62154;54.914;73.444;2023-02-21T09:29:44;64066.41;;;-147.71;100.00
73824;BME280;62154;54.914;73.444;2023-02-21T09:32:13;64066.41;;;-147.71;100.00
73824;BME280;62154;54.914;73.444;2023-02-21T09:34:44;64066.41;;;-147.71;100.00
73824;BME280;62154;54.914;73.444;2023-02-21T09:37:11;64066.41;;;-147.71;100.00
73824;BME280;62154;54.914;73.444;2023-02-21T09:39:38;64066.41;;;-147.71;100.00
73824;BME280;62154;54.914;73.444;2023-02-21T09:42:17;64066.41;;;-147.71;100.00
73824;BME280;62154;54.914;73.444;2023-02-21T09:44:55;64066.41;;;-147.71;100.00
73824;BME280;62154;54.914;73.444;2023-02-21T09:47:31;64066.41;;;-147.71;100.00
73824;BME280;62154;54.914;73.444;2023-02-21T09:50:06;64066.41;;;-147.71;100.00
73824;BME280;62154;54.914;73.444;2023-02-21T09:52:39;64066.41;;;-147.71;100.00
73824;BME280;62154;54.914;73.444;2023-02-21T09:57:43;64066.41;;;-147.71;100.00
73824;BME280;62154;54.914;73.444;2023-02-21T10:00:18;64066.41;;;-147.71;100.00
73824;BME280;62154;54.914;73.444;2023-02-21T10:06:09;64066.41;;;-147.71;100.00
73824;BME280;62154;54.914;73.444;2023-02-21T10:08:58;64066.41;;;-147.71;100.00
73824;BME280;62154;54.914;73.444;2023-02-21T10:12:00;64066.41;;;-147.71;100.00
73824;BME280;62154;54.914;73.444;2023-02-21T10:21:08;64066.41;;;-147.71;100.00
73824;BME280;62154;54.914;73.444;2023-02-21T10:23:43;64066.41;;;-147.71;100.00
73824;BME280;62154;54.914;73.444;2023-02-21T10:26:15;64066.41;;;-147.71;100.00
73824;BME280;62154;54.914;73.444;2023-02-21T10:28:44;64066.41;;;-147.71;100.00
73824;BME280;62154;54.914;73.444;2023-02-21T10:31:35;64066.41;;;-147.71;100.00
73824;BME280;62154;54.914;73.444;2023-02-21T10:34:05;64066.41;;;-147.71;100.00
73824;BME280;62154;54.914;73.444;2023-02-21T10:36:34;64066.41;;;-147.71;100.00
73824;BME280;62154;54.914;73.444;2023-02-21T10:39:17;64066.41;;;-147.71;100.00
73824;BME280;62154;54.914;73.444;2023-02-21T10:41:45;64066.41;;;-147.71;100.00
73824;BME280;62154;54.914;73.444;2023-02-21T10:44:21;64066.41;;;-147.71;100.00
73824;BME280;62154;54.914;73.444;2023-02-21T10:47:32;64066.41;;;-147.71;100.00
73824;BME280;62154;54.914;73.444;2023-02-21T10:50:07;64066.41;;;-147.71;100.00
73824;BME280;62154;54.914;73.444;2023-02-21T10:52:37;64066.41;;;-147.71;100.00
73824;BME280;62154;54.914;73.444;2023-02-21T10:55:19;64066.41;;;-147.71;100.00
73824;BME280;62154;54.914;73.444;2023-02-21T10:57:55;64066.41;;;-147.71;100.00
73824;BME280;62154;54.914;73.444;2023-02-21T11:05:49;64066.41;;;-147.71;100.00
73824;BME280;62154;54.914;73.444;2023-02-21T11:08:38;64066.41;;;-147.71;100.00
73824;BME280;62154;54.914;73.444;2023-02-21T11:11:07;64066.41;;;-147.71;100.00
73824;BME280;62154;54.914;73.444;2023-02-21T11:13:36;64066.41;;;-147.71;100.00
73824;BME280;62154;54.914;73.444;2023-02-21T11:16:19;64066.41;;;-147.71;100.00
73824;BME280;62154;54.914;73.444;2023-02-21T11:19:06;64066.41;;;-147.71;100.00
73824;BME280;62154;54.914;73.444;2023-02-21T11:21:34;64066.41;;;-147.71;100.00
73824;BME280;62154;54.914;73.444;2023-02-21T11:24:06;64066.41;;;-147.71;100.00
73824;BME280;62154;54.914;73.444;2023-02-21T11:26:44;64066.41;;;-147.71;100.00
73824;BME280;62154;54.914;73.444;2023-02-21T11:29:22;64066.41;;;-147.71;100.00
73824;BME280;62154;54.914;73.444;2023-02-21T11:31:52;64066.41;;;-147.71;100.00
73824;BME280;62154;54.914;73.444;2023-02-21T11:34:20;64066.41;;;-147.71;100.00
73824;BME280;62154;54.914;73.444;2023-02-21T11:36:51;64066.41;;;-147.71;100.00
73824;BME280;62154;54.914;73.444;2023-02-21T11:39:30;64066.41;;;-147.71;100.00
73824;BME280;62154;54.914;73.444;2023-02-21T11:42:30;64066.41;;;-147.71;100.00
73824;BME280;62154;54.914;73.444;2023-02-21T11:45:28;64066.41;;;-147.71;100.00
73824;BME280;62154;54.914;73.444;2023-02-21T11:48:01;64066.41;;;-147.71;100.00
73824;BME280;62154;54.914;73.444;2023-02-21T11:50:38;64066.41;;;-147.71;100.00
73824;BME280;62154;54.914;73.444;2023-02-21T11:56:16;64066.41;;;-147.71;100.00
73824;BME280;62154;54.914;73.444;2023-02-21T12:01:33;64066.41;;;-147.71;100.00
73824;BME280;62154;54.914;73.444;2023-02-21T12:07:06;64066.41;;;-147.71;100.00
73824;BME280;62154;54.914;73.444;2023-02-21T12:12:51;64066.41;;;-147.71;100.00
73824;BME280;62154;54.914;73.444;2023-02-21T12:18:51;64066.41;;;-147.71;100.00
73824;BME280;62154;54.914;73.444;2023-02-21T12:21:44;64066.41;;;-147.71;100.00
73824;BME280;62154;54.914;73.444;2023-02-21T12:33:34;64066.41;;;-147.71;100.00
73824;BME280;62154;54.914;73.444;2023-02-21T12:39:05;64066.41;;;-147.71;100.00
73824;BME280;62154;54.914;73.444;2023-02-21T12:41:55;64066.41;;;-147.71;100.00
73824;BME280;62154;54.914;73.444;2023-02-21T12:47:22;64066.41;;;-147.71;100.00
73824;BME280;62154;54.914;73.444;2023-02-21T12:52:56;64066.41;;;-147.71;100.00
73824;BME280;62154;54.914;73.444;2023-02-21T12:55:51;64066.41;;;-147.71;100.00
73824;BME280;62154;54.914;73.444;2023-02-21T12:58:32;64066.41;;;-147.71;100.00
73824;BME280;62154;54.914;73.444;2023-02-21T13:01:19;64066.41;;;-147.71;100.00
73824;BME280;62154;54.914;73.444;2023-02-21T13:04:31;64066.41;;;-147.71;100.00
73824;BME280;62154;54.914;73.444;2023-02-21T13:10:25;64066.41;;;-147.71;100.00
73824;BME280;62154;54.914;73.444;2023-02-21T13:13:09;64066.41;;;-147.71;100.00
73824;BME280;62154;54.914;73.444;2023-02-21T13:15:40;64066.41;;;-147.71;100.00
73824;BME280;62154;54.914;73.444;2023-02-21T13:18:18;64066.41;;;-147.71;100.00
73824;BME280;62154;54.914;73.444;2023-02-21T13:21:01;64066.41;;;-147.71;100.00
73824;BME280;62154;54.914;73.444;2023-02-21T13:23:50;64066.41;;;-147.71;100.00
73824;BME280;62154;54.914;73.444;2023-02-21T13:29:26;64066.41;;;-147.71;100.00
73824;BME280;62154;54.914;73.444;2023-02-21T13:32:10;64066.41;;;-147.71;100.00
73824;BME280;62154;54.914;73.444;2023-02-21T13:34:45;64066.41;;;-147.71;100.00
73824;BME280;62154;54.914;73.444;2023-02-21T13:37:17;64066.41;;;-147.71;100.00
73824;BME280;62154;54.914;73.444;2023-02-21T13:39:51;64066.41;;;-147.71;100.00
73824;BME280;62154;54.914;73.444;2023-02-21T13:42:25;64066.41;;;-147.71;100.00
73824;BME280;62154;54.914;73.444;2023-02-21T13:45:13;64066.41;;;-147.71;100.00
73824;BME280;62154;54.914;73.444;2023-02-21T13:58:37;64066.41;;;-147.71;100.00
73824;BME280;62154;54.914;73.444;2023-02-21T14:01:16;64066.41;;;-147.71;100.00
73824;BME280;62154;54.914;73.444;2023-02-21T14:03:44;64066.41;;;-147.71;100.00
73824;BME280;62154;54.914;73.444;2023-02-21T14:08:43;64066.41;;;-147.71;100.00
73824;BME280;62154;54.914;73.444;2023-02-21T14:11:19;64066.41;;;-147.71;100.00
73824;BME280;62154;54.914;73.444;2023-02-21T14:14:00;64066.41;;;-147.71;100.00
73824;BME280;62154;54.914;73.444;2023-02-21T14:19:16;64066.41;;;-147.71;100.00
73824;BME280;62154;54.914;73.444;2023-02-21T14:24:40;64066.41;;;-147.71;100.00
73824;BME280;62154;54.914;73.444;2023-02-21T14:29:39;64066.41;;;-147.71;100.00
73824;BME280;62154;54.914;73.444;2023-02-21T14:39:50;64066.41;;;-147.71;100.00
73824;BME280;62154;54.914;73.444;2023-02-21T14:46:06;64066.41;;;-147.71;100.00
73824;BME280;62154;54.914;73.444;2023-02-21T14:55:18;64066.41;;;-147.71;100.00
73824;BME280;62154;54.914;73.444;2023-02-21T15:06:30;64066.41;;;-147.71;100.00
73824;BME280;62154;54.914;73.444;2023-02-21T15:09:18;64066.41;;;-147.71;100.00
73824;BME280;62154;54.914;73.444;2023-02-21T15:11:47;64066.41;;;-147.71;100.00
73824;BME280;62154;54.914;73.444;2023-02-21T15:14:20;64066.41;;;-147.71;100.00
73824;BME280;62154;54.914;73.444;2023-02-21T15:17:00;64066.41;;;-147.71;100.00
73824;BME280;62154;54.914;73.444;2023-02-21T15:19:36;64066.41;;;-147.71;100.00
73824;BME280;62154;54.914;73.444;2023-02-21T15:22:16;64066.41;;;-147.71;100.00
73824;BME280;62154;54.914;73.444;2023-02-21T15:27:52;64066.41;;;-147.71;100.00
73824;BME280;62154;54.914;73.444;2023-02-21T15:30:23;64066.41;;;-147.71;100.00
73824;BME280;62154;54.914;73.444;2023-02-21T15:33:16;64066.41;;;-147.71;100.00
73824;BME280;62154;54.914;73.444;2023-02-21T15:36:01;64066.41;;;-147.71;100.00
73824;BME280;62154;54.914;73.444;2023-02-21T15:41:35;64066.41;;;-147.71;100.00